createdAt,value
2023-04-29T00:00:08.791Z,11.11
2023-04-29T00:05:05.806Z,11.06
2023-04-29T00:10:02.421Z,11.01
2023-04-29T00:14:59.707Z,10.94
2023-04-29T00:19:56.116Z,10.83
2023-04-29T00:24:53.182Z,10.79
2023-04-29T00:29:49.592Z,10.75
2023-04-29T00:34:46.173Z,10.70
2023-04-29T00:39:42.560Z,10.68
2023-04-29T00:44:38.941Z,10.66
2023-04-29T00:49:35.447Z,10.60
2023-04-29T00:54:32.070Z,10.56
2023-04-29T00:59:32.203Z,10.51
2023-04-29T01:04:28.771Z,10.45
2023-04-29T01:10:00.456Z,10.41
2023-04-29T01:15:12.572Z,10.25
2023-04-29T01:20:10.346Z,10.12
2023-04-29T01:25:07.260Z,10.06
2023-04-29T01:30:12.606Z,10.01
2023-04-29T01:35:25.075Z,10.01
2023-04-29T01:40:34.047Z,10.00
2023-04-29T01:45:34.032Z,9.94
2023-04-29T01:50:30.418Z,9.90
2023-04-29T01:55:26.855Z,9.84
2023-04-29T02:00:23.277Z,9.69
2023-04-29T02:05:19.665Z,9.56
2023-04-29T02:10:16.329Z,9.44
2023-04-29T02:15:12.715Z,9.39
2023-04-29T02:20:10.775Z,9.38
2023-04-29T02:25:07.529Z,9.36
2023-04-29T02:30:04.887Z,9.25
2023-04-29T02:35:01.303Z,9.20
2023-04-29T02:39:57.684Z,9.14
2023-04-29T02:44:54.058Z,9.10
2023-04-29T02:49:50.679Z,9.09
2023-04-29T02:54:47.354Z,9.07
2023-04-29T02:59:44.327Z,9.06
2023-04-29T03:04:40.870Z,9.00
2023-04-29T03:09:37.275Z,8.98
2023-04-29T03:14:33.670Z,8.95
2023-04-29T03:19:30.180Z,8.93
2023-04-29T03:24:27.183Z,8.92
2023-04-29T03:29:23.617Z,8.88
2023-04-29T03:34:20.748Z,8.87
2023-04-29T03:39:18.045Z,8.83
2023-04-29T03:44:14.665Z,8.82
2023-04-29T03:49:11.042Z,8.85
2023-04-29T03:54:08.404Z,8.82
2023-04-29T03:59:04.820Z,8.82
2023-04-29T04:04:01.677Z,8.84
2023-04-29T04:08:58.400Z,8.84
2023-04-29T04:13:54.968Z,8.84
2023-04-29T04:18:51.341Z,8.86
2023-04-29T04:23:47.740Z,8.87
2023-04-29T04:28:44.120Z,8.89
2023-04-29T04:33:43.474Z,8.89
2023-04-29T04:38:39.920Z,8.92
2023-04-29T04:43:36.345Z,8.92
2023-04-29T04:48:32.726Z,8.93
2023-04-29T04:53:29.139Z,8.92
2023-04-29T04:58:26.666Z,8.89
2023-04-29T05:03:23.260Z,8.85
2023-04-29T05:08:20.320Z,8.82
2023-04-29T05:13:16.753Z,8.80
2023-04-29T05:18:13.271Z,8.81
2023-04-29T05:23:10.164Z,8.83
2023-04-29T05:28:07.688Z,8.76
2023-04-29T05:33:04.110Z,8.77
2023-04-29T05:38:00.657Z,8.78
2023-04-29T05:42:57.026Z,8.78
2023-04-29T05:47:53.452Z,8.82
2023-04-29T05:52:49.997Z,8.78
2023-04-29T05:57:46.462Z,8.77
2023-04-29T06:02:51.005Z,8.78
2023-04-29T06:07:51.962Z,8.80
2023-04-29T06:12:51.535Z,8.80
2023-04-29T06:17:48.746Z,8.83
2023-04-29T06:22:45.235Z,8.83
2023-04-29T06:27:41.731Z,8.86
2023-04-29T06:32:39.370Z,8.86
2023-04-29T06:37:37.721Z,8.86
2023-04-29T06:42:34.703Z,8.82
2023-04-29T06:47:31.231Z,8.80
2023-04-29T06:52:27.701Z,8.86
2023-04-29T06:57:24.210Z,8.89
2023-04-29T07:02:20.749Z,8.99
2023-04-29T07:07:17.211Z,9.03
2023-04-29T07:12:13.650Z,9.17
2023-04-29T07:17:12.047Z,9.37
2023-04-29T07:22:10.376Z,9.61
2023-04-29T07:27:06.959Z,9.64
2023-04-29T07:32:03.821Z,9.66
2023-04-29T07:37:01.233Z,9.78
2023-04-29T07:41:57.815Z,9.77
2023-04-29T07:46:54.310Z,9.91
2023-04-29T07:51:50.772Z,9.76
2023-04-29T07:56:47.369Z,9.78
2023-04-29T08:01:44.215Z,9.96
2023-04-29T08:06:41.786Z,9.91
2023-04-29T08:11:39.947Z,10.27
2023-04-29T08:16:36.544Z,10.16
2023-04-29T08:21:33.582Z,10.14
2023-04-29T08:26:30.439Z,10.20
2023-04-29T08:31:27.504Z,10.39
2023-04-29T08:36:24.213Z,10.26
2023-04-29T08:41:20.647Z,10.29
2023-04-29T08:46:18.516Z,10.45
2023-04-29T08:51:15.096Z,10.69
2023-04-29T08:56:23.158Z,10.62
2023-04-29T09:01:20.645Z,10.53
2023-04-29T09:06:17.846Z,10.84
2023-04-29T09:11:14.650Z,10.70
2023-04-29T09:16:12.774Z,10.74
2023-04-29T09:21:22.017Z,10.62
2023-04-29T09:26:19.957Z,10.83
2023-04-29T09:31:28.067Z,10.89
2023-04-29T09:36:47.766Z,11.31
2023-04-29T09:41:53.083Z,11.50
2023-04-29T09:47:09.399Z,11.49
2023-04-29T09:52:11.078Z,11.89
2023-04-29T09:57:09.358Z,12.09
2023-04-29T10:02:17.791Z,12.44
2023-04-29T10:07:20.095Z,12.38
2023-04-29T10:12:18.921Z,11.80
2023-04-29T10:17:26.256Z,12.00
2023-04-29T10:22:33.683Z,12.10
2023-04-29T10:27:34.199Z,12.21
2023-04-29T10:32:39.945Z,12.36
2023-04-29T10:37:48.552Z,12.76
2023-04-29T10:42:45.855Z,13.17
2023-04-29T10:47:42.542Z,12.69
2023-04-29T10:52:52.498Z,12.74
2023-04-29T10:57:49.308Z,12.57
2023-04-29T11:02:45.814Z,12.44
2023-04-29T11:07:44.391Z,12.31
2023-04-29T11:12:40.992Z,12.49
2023-04-29T11:17:38.468Z,12.66
2023-04-29T11:22:35.381Z,12.51
2023-04-29T11:27:36.345Z,13.20
2023-04-29T11:32:35.349Z,13.74
2023-04-29T11:37:32.724Z,13.26
2023-04-29T11:42:29.425Z,13.03
2023-04-29T11:47:27.513Z,12.42
2023-04-29T11:52:23.934Z,12.10
2023-04-29T11:57:20.371Z,12.25
2023-04-29T12:02:17.051Z,12.87
2023-04-29T12:07:17.449Z,13.00
2023-04-29T12:12:14.800Z,13.98
2023-04-29T12:17:11.938Z,14.01
2023-04-29T12:22:08.512Z,13.43
2023-04-29T12:27:08.549Z,14.46
2023-04-29T12:32:05.124Z,13.42
2023-04-29T12:37:02.087Z,12.90
2023-04-29T12:41:59.488Z,12.90
2023-04-29T12:46:58.382Z,12.87
2023-04-29T12:51:55.179Z,12.86
2023-04-29T12:56:52.201Z,12.98
2023-04-29T13:01:48.844Z,13.00
2023-04-29T13:06:45.392Z,12.99
2023-04-29T13:11:42.247Z,12.94
2023-04-29T13:16:38.825Z,12.76
2023-04-29T13:21:35.320Z,12.78
2023-04-29T13:26:32.242Z,12.85
2023-04-29T13:31:29.053Z,12.79
2023-04-29T13:36:28.588Z,12.85
2023-04-29T13:41:26.521Z,13.09
2023-04-29T13:46:23.058Z,13.35
2023-04-29T14:02:00.468Z,12.97
2023-04-29T14:06:35.230Z,13.04
2023-04-29T14:11:36.395Z,12.93
2023-04-29T14:16:33.282Z,13.07
2023-04-29T14:21:30.054Z,13.06
2023-04-29T14:26:28.380Z,13.37
2023-04-29T14:31:38.440Z,13.39
2023-04-29T14:36:35.043Z,13.47
2023-04-29T14:41:31.556Z,13.66
2023-04-29T14:46:29.110Z,14.31
2023-04-29T14:51:25.730Z,14.75
2023-04-29T14:56:22.305Z,14.64
2023-04-29T15:01:18.770Z,14.49
2023-04-29T15:06:15.408Z,14.28
2023-04-29T15:11:11.818Z,14.14
2023-04-29T15:16:08.890Z,14.59
2023-04-29T15:21:05.555Z,14.02
2023-04-29T15:26:02.045Z,13.82
2023-04-29T15:30:59.915Z,13.45
2023-04-29T15:35:56.889Z,13.46
2023-04-29T15:40:59.164Z,13.31
2023-04-29T15:45:56.110Z,13.26
2023-04-29T15:50:53.544Z,13.38
2023-04-29T15:55:50.190Z,13.37
2023-04-29T16:00:47.213Z,13.35
2023-04-29T16:05:43.682Z,13.51
2023-04-29T16:10:40.197Z,13.58
2023-04-29T16:15:36.750Z,13.48
2023-04-29T16:20:33.383Z,13.58
2023-04-29T16:25:29.771Z,13.46
2023-04-29T16:30:26.157Z,13.27
2023-04-29T16:35:26.312Z,13.16
2023-04-29T16:40:24.052Z,13.05
2023-04-29T16:45:23.630Z,12.90
2023-04-29T16:50:20.420Z,12.85
2023-04-29T16:55:16.957Z,12.82
2023-04-29T17:00:13.965Z,12.76
2023-04-29T17:05:10.922Z,12.74
2023-04-29T17:10:08.253Z,12.74
2023-04-29T17:15:05.961Z,12.74
2023-04-29T17:20:02.526Z,12.78
2023-04-29T17:24:58.992Z,12.76
2023-04-29T17:29:55.866Z,12.76
2023-04-29T17:34:53.296Z,12.73
2023-04-29T17:39:49.770Z,12.68
2023-04-29T17:44:46.614Z,12.61
2023-04-29T17:49:43.816Z,12.64
2023-04-29T17:54:41.146Z,12.82
2023-04-29T17:59:37.534Z,13.20
2023-04-29T18:04:34.022Z,15.93
2023-04-29T18:09:30.558Z,17.24
2023-04-29T18:14:29.055Z,17.92
2023-04-29T18:19:25.792Z,17.02
2023-04-29T18:24:22.526Z,14.93
2023-04-29T18:29:18.930Z,13.49
2023-04-29T18:34:15.865Z,12.59
2023-04-29T18:39:12.288Z,12.11
2023-04-29T18:44:08.772Z,11.64
2023-04-29T18:49:05.201Z,11.35
2023-04-29T18:54:01.616Z,11.21
2023-04-29T18:58:58.064Z,11.05
2023-04-29T19:03:55.318Z,10.93
2023-04-29T19:08:51.735Z,10.83
2023-04-29T19:13:48.136Z,10.75
2023-04-29T19:18:45.518Z,10.71
2023-04-29T19:23:42.153Z,10.73
2023-04-29T19:28:38.594Z,10.66
2023-04-29T19:33:35.279Z,10.43
2023-04-29T19:38:31.699Z,10.10
2023-04-29T19:43:28.475Z,9.88
2023-04-29T19:48:25.010Z,9.74
2023-04-29T19:53:21.602Z,9.71
2023-04-29T19:58:18.214Z,9.58
2023-04-29T20:03:14.764Z,9.48
2023-04-29T20:08:11.227Z,9.31
2023-04-29T20:13:07.889Z,9.29
2023-04-29T20:18:04.472Z,9.14
2023-04-29T20:23:01.013Z,9.03
2023-04-29T20:27:57.594Z,9.13
2023-04-29T20:32:54.447Z,9.22
2023-04-29T20:37:51.276Z,9.07
2023-04-29T20:42:47.837Z,9.14
2023-04-29T20:47:44.469Z,9.17
2023-04-29T20:52:41.681Z,9.05
2023-04-29T20:57:38.572Z,8.88
2023-04-29T21:02:35.054Z,8.84
2023-04-29T21:07:31.497Z,8.83
2023-04-29T21:12:27.952Z,8.72
2023-04-29T21:17:24.395Z,8.61
2023-04-29T21:22:20.828Z,8.40
2023-04-29T21:27:17.399Z,8.21
2023-04-29T21:32:14.723Z,8.04
2023-04-29T21:37:11.115Z,8.00
2023-04-29T21:42:09.666Z,7.94
2023-04-29T21:47:06.970Z,7.92
2023-04-29T21:52:03.848Z,7.83
2023-04-29T21:57:00.566Z,7.74
2023-04-29T22:02:00.607Z,7.62
2023-04-29T22:06:57.314Z,7.58
2023-04-29T22:11:53.760Z,7.53
2023-04-29T22:16:50.227Z,7.42
2023-04-29T22:21:46.805Z,7.38
2023-04-29T22:26:43.349Z,7.27
2023-04-29T22:31:39.845Z,7.35
2023-04-29T22:36:36.583Z,7.22
2023-04-29T22:41:33.091Z,7.20
2023-04-29T22:46:29.498Z,7.08
2023-04-29T22:51:26.678Z,7.00
2023-04-29T22:56:24.592Z,6.91
2023-04-29T23:01:21.347Z,6.76
2023-04-29T23:06:17.820Z,6.72
2023-04-29T23:11:14.711Z,6.54
2023-04-29T23:16:11.473Z,6.55
2023-04-29T23:21:07.930Z,6.49
2023-04-29T23:26:04.392Z,6.39
2023-04-29T23:31:00.914Z,6.18
2023-04-29T23:35:57.345Z,6.06
2023-04-29T23:40:53.755Z,6.17
2023-04-29T23:45:50.227Z,6.27
2023-04-29T23:50:47.363Z,5.98
2023-04-29T23:55:43.724Z,5.94
